sensor_id;sensor_type;location;lat;lon;timestamp;temperature;humidity
67147;DHT22;70072;52.036;5.558;2024-03-25T00:01:36;17.90;70.20
67147;DHT22;70072;52.036;5.558;2024-03-25T00:04:02;17.90;70.20
67147;DHT22;70072;52.036;5.558;2024-03-25T00:06:30;17.90;70.20
67147;DHT22;70072;52.036;5.558;2024-03-25T00:08:59;17.90;70.20
67147;DHT22;70072;52.036;5.558;2024-03-25T00:11:25;17.90;70.10
67147;DHT22;70072;52.036;5.558;2024-03-25T00:13:51;17.90;70.20
67147;DHT22;70072;52.036;5.558;2024-03-25T00:16:18;17.90;70.10
67147;DHT22;70072;52.036;5.558;2024-03-25T00:18:44;17.90;70.10
67147;DHT22;70072;52.036;5.558;2024-03-25T00:21:12;17.90;70.10
67147;DHT22;70072;52.036;5.558;2024-03-25T00:23:37;17.80;70.10
67147;DHT22;70072;52.036;5.558;2024-03-25T00:26:03;17.90;70.10
67147;DHT22;70072;52.036;5.558;2024-03-25T00:28:29;17.90;70.10
67147;DHT22;70072;52.036;5.558;2024-03-25T00:30:54;17.90;70.10
67147;DHT22;70072;52.036;5.558;2024-03-25T00:33:20;17.90;70.10
67147;DHT22;70072;52.036;5.558;2024-03-25T00:35:45;17.90;70.10
67147;DHT22;70072;52.036;5.558;2024-03-25T00:38:12;17.90;70.10
67147;DHT22;70072;52.036;5.558;2024-03-25T00:40:37;17.90;70.70
67147;DHT22;70072;52.036;5.558;2024-03-25T00:43:05;17.80;70.00
67147;DHT22;70072;52.036;5.558;2024-03-25T00:45:31;17.90;70.00
67147;DHT22;70072;52.036;5.558;2024-03-25T00:47:57;17.80;70.00
67147;DHT22;70072;52.036;5.558;2024-03-25T00:50:22;17.80;70.00
67147;DHT22;70072;52.036;5.558;2024-03-25T00:52:48;17.80;70.00
67147;DHT22;70072;52.036;5.558;2024-03-25T00:55:14;17.80;69.90
67147;DHT22;70072;52.036;5.558;2024-03-25T00:57:39;17.80;69.90
67147;DHT22;70072;52.036;5.558;2024-03-25T01:00:06;17.80;69.90
67147;DHT22;70072;52.036;5.558;2024-03-25T01:02:32;17.80;69.90
67147;DHT22;70072;52.036;5.558;2024-03-25T01:04:57;17.80;69.90
67147;DHT22;70072;52.036;5.558;2024-03-25T01:07:25;17.80;69.90
67147;DHT22;70072;52.036;5.558;2024-03-25T01:09:51;17.80;70.60
67147;DHT22;70072;52.036;5.558;2024-03-25T01:12:16;17.80;69.90
67147;DHT22;70072;52.036;5.558;2024-03-25T01:14:42;17.80;69.90
67147;DHT22;70072;52.036;5.558;2024-03-25T01:17:07;17.80;69.90
67147;DHT22;70072;52.036;5.558;2024-03-25T01:19:33;17.80;69.80
67147;DHT22;70072;52.036;5.558;2024-03-25T01:21:59;17.80;69.80
67147;DHT22;70072;52.036;5.558;2024-03-25T01:24:24;17.80;69.80
67147;DHT22;70072;52.036;5.558;2024-03-25T01:26:50;17.80;69.80
67147;DHT22;70072;52.036;5.558;2024-03-25T01:29:16;17.80;69.80
67147;DHT22;70072;52.036;5.558;2024-03-25T01:31:44;17.80;69.80
67147;DHT22;70072;52.036;5.558;2024-03-25T01:34:11;17.70;69.70
67147;DHT22;70072;52.036;5.558;2024-03-25T01:36:37;17.70;69.70
67147;DHT22;70072;52.036;5.558;2024-03-25T01:39:02;17.70;69.70
67147;DHT22;70072;52.036;5.558;2024-03-25T01:41:30;17.80;69.80
67147;DHT22;70072;52.036;5.558;2024-03-25T01:43:56;17.70;69.70
67147;DHT22;70072;52.036;5.558;2024-03-25T01:46:21;17.80;69.80
67147;DHT22;70072;52.036;5.558;2024-03-25T01:48:48;17.80;69.70
67147;DHT22;70072;52.036;5.558;2024-03-25T01:51:17;17.70;69.70
67147;DHT22;70072;52.036;5.558;2024-03-25T01:53:44;17.70;69.70
67147;DHT22;70072;52.036;5.558;2024-03-25T01:56:12;17.70;69.60
67147;DHT22;70072;52.036;5.558;2024-03-25T01:58:39;17.70;69.60
67147;DHT22;70072;52.036;5.558;2024-03-25T02:01:05;17.70;69.60
67147;DHT22;70072;52.036;5.558;2024-03-25T02:03:30;17.70;69.70
67147;DHT22;70072;52.036;5.558;2024-03-25T02:06:00;17.70;69.60
67147;DHT22;70072;52.036;5.558;2024-03-25T02:08:27;17.70;69.60
67147;DHT22;70072;52.036;5.558;2024-03-25T02:10:54;17.70;69.60
67147;DHT22;70072;52.036;5.558;2024-03-25T02:13:20;17.70;69.50
67147;DHT22;70072;52.036;5.558;2024-03-25T02:15:47;17.70;69.50
67147;DHT22;70072;52.036;5.558;2024-03-25T02:18:16;17.70;69.50
67147;DHT22;70072;52.036;5.558;2024-03-25T02:20:42;17.70;69.50
67147;DHT22;70072;52.036;5.558;2024-03-25T02:23:07;17.70;69.50
67147;DHT22;70072;52.036;5.558;2024-03-25T02:25:36;17.70;69.50
67147;DHT22;70072;52.036;5.558;2024-03-25T02:28:03;17.60;69.40
67147;DHT22;70072;52.036;5.558;2024-03-25T02:30:29;17.70;69.50
67147;DHT22;70072;52.036;5.558;2024-03-25T02:32:55;17.60;69.40
67147;DHT22;70072;52.036;5.558;2024-03-25T02:35:21;17.70;69.50
67147;DHT22;70072;52.036;5.558;2024-03-25T02:37:47;17.70;69.40
67147;DHT22;70072;52.036;5.558;2024-03-25T02:40:15;17.60;69.40
67147;DHT22;70072;52.036;5.558;2024-03-25T02:42:41;17.70;69.40
67147;DHT22;70072;52.036;5.558;2024-03-25T02:45:07;17.70;69.40
67147;DHT22;70072;52.036;5.558;2024-03-25T02:47:33;17.60;69.30
67147;DHT22;70072;52.036;5.558;2024-03-25T02:49:59;17.60;69.30
67147;DHT22;70072;52.036;5.558;2024-03-25T02:52:24;17.70;69.40
67147;DHT22;70072;52.036;5.558;2024-03-25T02:54:50;17.60;69.30
67147;DHT22;70072;52.036;5.558;2024-03-25T02:57:16;17.60;69.30
67147;DHT22;70072;52.036;5.558;2024-03-25T02:59:42;17.60;69.30
67147;DHT22;70072;52.036;5.558;2024-03-25T03:02:07;17.60;69.30
67147;DHT22;70072;52.036;5.558;2024-03-25T03:04:33;17.60;69.30
67147;DHT22;70072;52.036;5.558;2024-03-25T03:06:59;17.60;69.90
67147;DHT22;70072;52.036;5.558;2024-03-25T03:09:24;17.60;69.30
67147;DHT22;70072;52.036;5.558;2024-03-25T03:11:50;17.60;69.30
67147;DHT22;70072;52.036;5.558;2024-03-25T03:14:16;17.60;69.30
67147;DHT22;70072;52.036;5.558;2024-03-25T03:16:42;17.60;69.90
67147;DHT22;70072;52.036;5.558;2024-03-25T03:19:07;17.60;69.30
67147;DHT22;70072;52.036;5.558;2024-03-25T03:21:33;17.60;69.20
67147;DHT22;70072;52.036;5.558;2024-03-25T03:23:58;17.60;69.20
67147;DHT22;70072;52.036;5.558;2024-03-25T03:26:27;17.60;69.80
67147;DHT22;70072;52.036;5.558;2024-03-25T03:28:59;17.60;69.20
67147;DHT22;70072;52.036;5.558;2024-03-25T03:31:26;17.60;69.20
67147;DHT22;70072;52.036;5.558;2024-03-25T03:33:52;17.60;69.20
67147;DHT22;70072;52.036;5.558;2024-03-25T03:36:20;17.50;69.10
67147;DHT22;70072;52.036;5.558;2024-03-25T03:38:45;17.60;69.20
67147;DHT22;70072;52.036;5.558;2024-03-25T03:41:11;17.60;69.20
67147;DHT22;70072;52.036;5.558;2024-03-25T03:43:37;17.60;69.20
67147;DHT22;70072;52.036;5.558;2024-03-25T03:46:03;17.60;69.10
67147;DHT22;70072;52.036;5.558;2024-03-25T03:48:30;17.60;69.10
67147;DHT22;70072;52.036;5.558;2024-03-25T03:50:55;17.60;69.20
67147;DHT22;70072;52.036;5.558;2024-03-25T03:53:21;17.60;69.10
67147;DHT22;70072;52.036;5.558;2024-03-25T03:56:01;17.50;69.10
67147;DHT22;70072;52.036;5.558;2024-03-25T03:58:27;17.60;69.10
67147;DHT22;70072;52.036;5.558;2024-03-25T04:00:54;17.60;69.10
67147;DHT22;70072;52.036;5.558;2024-03-25T04:03:19;17.50;69.00
67147;DHT22;70072;52.036;5.558;2024-03-25T04:05:45;17.50;69.10
67147;DHT22;70072;52.036;5.558;2024-03-25T04:08:11;17.50;69.00
67147;DHT22;70072;52.036;5.558;2024-03-25T04:10:37;17.50;69.00
67147;DHT22;70072;52.036;5.558;2024-03-25T04:13:07;17.50;69.00
67147;DHT22;70072;52.036;5.558;2024-03-25T04:15:35;17.50;69.00
67147;DHT22;70072;52.036;5.558;2024-03-25T04:18:02;17.50;69.00
67147;DHT22;70072;52.036;5.558;2024-03-25T04:20:28;17.50;69.00
67147;DHT22;70072;52.036;5.558;2024-03-25T04:22:54;17.50;69.00
67147;DHT22;70072;52.036;5.558;2024-03-25T04:25:22;17.50;69.00
67147;DHT22;70072;52.036;5.558;2024-03-25T04:27:48;17.50;69.00
67147;DHT22;70072;52.036;5.558;2024-03-25T04:30:14;17.50;69.00
67147;DHT22;70072;52.036;5.558;2024-03-25T04:32:40;17.50;68.90
67147;DHT22;70072;52.036;5.558;2024-03-25T04:35:08;17.50;68.90
67147;DHT22;70072;52.036;5.558;2024-03-25T04:37:34;17.50;68.90
67147;DHT22;70072;52.036;5.558;2024-03-25T04:40:03;17.50;68.90
67147;DHT22;70072;52.036;5.558;2024-03-25T04:42:29;17.50;68.90
67147;DHT22;70072;52.036;5.558;2024-03-25T04:44:54;17.50;68.90
67147;DHT22;70072;52.036;5.558;2024-03-25T04:47:20;17.50;68.90
67147;DHT22;70072;52.036;5.558;2024-03-25T04:49:48;17.50;68.90
67147;DHT22;70072;52.036;5.558;2024-03-25T04:52:15;17.50;68.90
67147;DHT22;70072;52.036;5.558;2024-03-25T04:54:44;17.50;68.90
67147;DHT22;70072;52.036;5.558;2024-03-25T04:57:10;17.50;68.90
67147;DHT22;70072;52.036;5.558;2024-03-25T04:59:35;17.50;68.90
67147;DHT22;70072;52.036;5.558;2024-03-25T05:02:01;17.50;68.90
67147;DHT22;70072;52.036;5.558;2024-03-25T05:04:27;17.50;68.90
67147;DHT22;70072;52.036;5.558;2024-03-25T05:06:55;17.40;68.80
67147;DHT22;70072;52.036;5.558;2024-03-25T05:09:20;17.50;68.90
67147;DHT22;70072;52.036;5.558;2024-03-25T05:11:46;17.50;69.50
67147;DHT22;70072;52.036;5.558;2024-03-25T05:14:11;17.50;68.80
67147;DHT22;70072;52.036;5.558;2024-03-25T05:16:37;17.40;68.80
67147;DHT22;70072;52.036;5.558;2024-03-25T05:19:03;17.50;68.80
67147;DHT22;70072;52.036;5.558;2024-03-25T05:21:30;17.40;68.70
67147;DHT22;70072;52.036;5.558;2024-03-25T05:23:56;17.40;68.80
67147;DHT22;70072;52.036;5.558;2024-03-25T05:26:22;17.50;68.80
67147;DHT22;70072;52.036;5.558;2024-03-25T05:28:55;17.40;68.70
67147;DHT22;70072;52.036;5.558;2024-03-25T05:31:21;17.40;68.70
67147;DHT22;70072;52.036;5.558;2024-03-25T05:33:47;17.50;68.80
67147;DHT22;70072;52.036;5.558;2024-03-25T05:36:13;17.40;68.70
67147;DHT22;70072;52.036;5.558;2024-03-25T05:38:41;17.40;68.70
67147;DHT22;70072;52.036;5.558;2024-03-25T05:41:10;17.40;68.70
67147;DHT22;70072;52.036;5.558;2024-03-25T05:43:36;17.40;68.70
67147;DHT22;70072;52.036;5.558;2024-03-25T05:46:02;17.40;68.60
67147;DHT22;70072;52.036;5.558;2024-03-25T05:48:30;17.40;68.70
67147;DHT22;70072;52.036;5.558;2024-03-25T05:51:00;17.40;68.70
67147;DHT22;70072;52.036;5.558;2024-03-25T05:53:32;17.40;68.60
67147;DHT22;70072;52.036;5.558;2024-03-25T05:55:57;17.40;68.60
67147;DHT22;70072;52.036;5.558;2024-03-25T05:58:26;17.40;68.60
67147;DHT22;70072;52.036;5.558;2024-03-25T06:00:54;17.40;68.60
67147;DHT22;70072;52.036;5.558;2024-03-25T06:03:21;17.40;68.60
67147;DHT22;70072;52.036;5.558;2024-03-25T06:05:47;17.40;68.60
67147;DHT22;70072;52.036;5.558;2024-03-25T06:08:13;17.40;68.60
67147;DHT22;70072;52.036;5.558;2024-03-25T06:11:05;17.40;68.60
67147;DHT22;70072;52.036;5.558;2024-03-25T06:13:30;17.40;68.50
67147;DHT22;70072;52.036;5.558;2024-03-25T06:15:56;17.40;68.50
67147;DHT22;70072;52.036;5.558;2024-03-25T06:18:22;17.40;68.60
67147;DHT22;70072;52.036;5.558;2024-03-25T06:20:47;17.40;68.50
67147;DHT22;70072;52.036;5.558;2024-03-25T06:25:49;17.40;68.50
67147;DHT22;70072;52.036;5.558;2024-03-25T06:28:15;17.40;68.50
67147;DHT22;70072;52.036;5.558;2024-03-25T06:30:41;17.40;68.50
67147;DHT22;70072;52.036;5.558;2024-03-25T06:33:25;17.40;68.50
67147;DHT22;70072;52.036;5.558;2024-03-25T06:36:09;17.40;68.50
67147;DHT22;70072;52.036;5.558;2024-03-25T06:38:34;17.40;68.50
67147;DHT22;70072;52.036;5.558;2024-03-25T06:41:00;17.40;68.50
67147;DHT22;70072;52.036;5.558;2024-03-25T06:43:26;17.40;68.40
67147;DHT22;70072;52.036;5.558;2024-03-25T06:45:51;17.40;68.40
67147;DHT22;70072;52.036;5.558;2024-03-25T06:48:17;17.40;68.40
67147;DHT22;70072;52.036;5.558;2024-03-25T06:50:52;17.40;68.40
67147;DHT22;70072;52.036;5.558;2024-03-25T06:53:18;17.40;68.40
67147;DHT22;70072;52.036;5.558;2024-03-25T06:56:00;17.40;68.40
67147;DHT22;70072;52.036;5.558;2024-03-25T06:58:29;17.40;68.30
67147;DHT22;70072;52.036;5.558;2024-03-25T07:00:56;17.40;68.30
67147;DHT22;70072;52.036;5.558;2024-03-25T07:03:22;17.40;68.30
67147;DHT22;70072;52.036;5.558;2024-03-25T07:05:50;17.40;68.30
67147;DHT22;70072;52.036;5.558;2024-03-25T07:08:18;17.40;68.30
67147;DHT22;70072;52.036;5.558;2024-03-25T07:10:45;17.40;68.30
67147;DHT22;70072;52.036;5.558;2024-03-25T07:13:13;17.40;68.30
67147;DHT22;70072;52.036;5.558;2024-03-25T07:15:39;17.40;68.30
67147;DHT22;70072;52.036;5.558;2024-03-25T07:18:05;17.50;68.30
67147;DHT22;70072;52.036;5.558;2024-03-25T07:20:35;17.50;68.30
67147;DHT22;70072;52.036;5.558;2024-03-25T07:23:01;17.40;68.20
67147;DHT22;70072;52.036;5.558;2024-03-25T07:25:26;17.40;68.20
67147;DHT22;70072;52.036;5.558;2024-03-25T07:27:52;17.50;68.90
67147;DHT22;70072;52.036;5.558;2024-03-25T07:30:18;17.40;68.20
67147;DHT22;70072;52.036;5.558;2024-03-25T07:32:44;17.50;68.30
67147;DHT22;70072;52.036;5.558;2024-03-25T07:35:13;17.50;68.40
67147;DHT22;70072;52.036;5.558;2024-03-25T07:37:43;17.50;68.50
67147;DHT22;70072;52.036;5.558;2024-03-25T07:40:09;17.40;68.40
67147;DHT22;70072;52.036;5.558;2024-03-25T07:42:35;17.50;68.40
67147;DHT22;70072;52.036;5.558;2024-03-25T07:45:01;17.50;68.30
67147;DHT22;70072;52.036;5.558;2024-03-25T07:47:30;17.50;68.30
67147;DHT22;70072;52.036;5.558;2024-03-25T07:49:56;17.50;68.30
67147;DHT22;70072;52.036;5.558;2024-03-25T07:52:21;17.50;68.30
67147;DHT22;70072;52.036;5.558;2024-03-25T07:54:47;17.50;68.30
67147;DHT22;70072;52.036;5.558;2024-03-25T07:57:13;17.50;68.30
67147;DHT22;70072;52.036;5.558;2024-03-25T07:59:38;17.50;68.30
67147;DHT22;70072;52.036;5.558;2024-03-25T08:02:04;17.60;68.30
67147;DHT22;70072;52.036;5.558;2024-03-25T08:04:30;17.50;68.30
67147;DHT22;70072;52.036;5.558;2024-03-25T08:06:56;17.50;68.30
67147;DHT22;70072;52.036;5.558;2024-03-25T08:09:22;17.60;68.30
67147;DHT22;70072;52.036;5.558;2024-03-25T08:11:47;17.50;68.30
67147;DHT22;70072;52.036;5.558;2024-03-25T08:14:15;17.60;68.30
67147;DHT22;70072;52.036;5.558;2024-03-25T08:16:41;17.60;68.30
67147;DHT22;70072;52.036;5.558;2024-03-25T08:19:06;17.60;68.40
67147;DHT22;70072;52.036;5.558;2024-03-25T08:21:32;17.60;68.40
67147;DHT22;70072;52.036;5.558;2024-03-25T08:24:00;17.60;68.40
67147;DHT22;70072;52.036;5.558;2024-03-25T08:26:27;17.60;68.40
67147;DHT22;70072;52.036;5.558;2024-03-25T08:28:53;17.60;68.40
67147;DHT22;70072;52.036;5.558;2024-03-25T08:31:18;17.60;68.40
67147;DHT22;70072;52.036;5.558;2024-03-25T08:33:44;17.60;68.40
67147;DHT22;70072;52.036;5.558;2024-03-25T08:36:10;17.70;68.40
67147;DHT22;70072;52.036;5.558;2024-03-25T08:38:36;17.60;68.40
67147;DHT22;70072;52.036;5.558;2024-03-25T08:41:01;17.70;68.40
67147;DHT22;70072;52.036;5.558;2024-03-25T08:43:27;17.60;68.40
67147;DHT22;70072;52.036;5.558;2024-03-25T08:45:52;17.70;68.50
67147;DHT22;70072;52.036;5.558;2024-03-25T08:48:18;17.70;68.50
67147;DHT22;70072;52.036;5.558;2024-03-25T08:50:44;17.70;68.50
67147;DHT22;70072;52.036;5.558;2024-03-25T08:53:09;17.70;68.50
67147;DHT22;70072;52.036;5.558;2024-03-25T08:55:35;17.80;68.50
67147;DHT22;70072;52.036;5.558;2024-03-25T08:58:00;17.70;68.50
67147;DHT22;70072;52.036;5.558;2024-03-25T09:00:27;17.70;68.40
67147;DHT22;70072;52.036;5.558;2024-03-25T09:02:55;17.80;68.50
67147;DHT22;70072;52.036;5.558;2024-03-25T09:05:21;17.70;68.40
67147;DHT22;70072;52.036;5.558;2024-03-25T09:07:50;17.80;68.40
67147;DHT22;70072;52.036;5.558;2024-03-25T09:10:18;17.80;68.40
67147;DHT22;70072;52.036;5.558;2024-03-25T09:13:03;17.80;68.40
67147;DHT22;70072;52.036;5.558;2024-03-25T09:15:29;17.80;68.30
67147;DHT22;70072;52.036;5.558;2024-03-25T09:17:57;17.80;68.30
67147;DHT22;70072;52.036;5.558;2024-03-25T09:20:22;17.80;68.30
67147;DHT22;70072;52.036;5.558;2024-03-25T09:22:48;17.80;68.40
67147;DHT22;70072;52.036;5.558;2024-03-25T09:25:15;17.90;68.40
67147;DHT22;70072;52.036;5.558;2024-03-25T09:27:45;17.90;68.40
67147;DHT22;70072;52.036;5.558;2024-03-25T09:30:10;17.90;68.40
67147;DHT22;70072;52.036;5.558;2024-03-25T09:32:38;17.90;68.40
67147;DHT22;70072;52.036;5.558;2024-03-25T09:35:04;17.90;68.30
67147;DHT22;70072;52.036;5.558;2024-03-25T09:37:30;17.90;68.30
67147;DHT22;70072;52.036;5.558;2024-03-25T09:39:59;17.90;68.30
67147;DHT22;70072;52.036;5.558;2024-03-25T09:42:48;17.90;68.30
67147;DHT22;70072;52.036;5.558;2024-03-25T09:45:16;17.90;68.30
67147;DHT22;70072;52.036;5.558;2024-03-25T09:47:46;17.90;68.30
67147;DHT22;70072;52.036;5.558;2024-03-25T09:50:15;17.90;68.30
67147;DHT22;70072;52.036;5.558;2024-03-25T09:52:48;17.90;68.30
67147;DHT22;70072;52.036;5.558;2024-03-25T09:55:14;17.90;68.30
67147;DHT22;70072;52.036;5.558;2024-03-25T09:57:45;17.90;68.30
67147;DHT22;70072;52.036;5.558;2024-03-25T10:00:11;18.00;68.30
67147;DHT22;70072;52.036;5.558;2024-03-25T10:02:39;18.00;68.30
67147;DHT22;70072;52.036;5.558;2024-03-25T10:05:05;18.00;68.30
67147;DHT22;70072;52.036;5.558;2024-03-25T10:07:35;18.00;68.30
67147;DHT22;70072;52.036;5.558;2024-03-25T10:10:07;18.00;68.30
67147;DHT22;70072;52.036;5.558;2024-03-25T10:12:38;18.00;68.20
67147;DHT22;70072;52.036;5.558;2024-03-25T10:15:04;18.00;68.20
67147;DHT22;70072;52.036;5.558;2024-03-25T10:17:32;18.00;68.20
67147;DHT22;70072;52.036;5.558;2024-03-25T10:19:57;18.00;68.20
67147;DHT22;70072;52.036;5.558;2024-03-25T10:22:23;18.00;68.20
67147;DHT22;70072;52.036;5.558;2024-03-25T10:24:49;18.00;68.20
67147;DHT22;70072;52.036;5.558;2024-03-25T10:27:23;18.10;68.30
67147;DHT22;70072;52.036;5.558;2024-03-25T10:29:55;18.10;68.20
67147;DHT22;70072;52.036;5.558;2024-03-25T10:32:21;18.10;68.20
67147;DHT22;70072;52.036;5.558;2024-03-25T10:34:47;18.10;68.20
67147;DHT22;70072;52.036;5.558;2024-03-25T10:37:14;18.10;68.20
67147;DHT22;70072;52.036;5.558;2024-03-25T10:39:48;18.10;68.20
67147;DHT22;70072;52.036;5.558;2024-03-25T10:42:18;18.10;68.00
67147;DHT22;70072;52.036;5.558;2024-03-25T10:44:44;18.10;68.10
67147;DHT22;70072;52.036;5.558;2024-03-25T10:47:20;18.10;68.10
67147;DHT22;70072;52.036;5.558;2024-03-25T10:49:49;18.10;68.10
67147;DHT22;70072;52.036;5.558;2024-03-25T10:52:17;18.10;68.00
67147;DHT22;70072;52.036;5.558;2024-03-25T10:54:43;18.10;68.10
67147;DHT22;70072;52.036;5.558;2024-03-25T10:57:13;18.20;68.10
67147;DHT22;70072;52.036;5.558;2024-03-25T10:59:40;18.20;68.10
67147;DHT22;70072;52.036;5.558;2024-03-25T11:02:08;18.20;68.10
67147;DHT22;70072;52.036;5.558;2024-03-25T11:04:34;18.20;68.10
67147;DHT22;70072;52.036;5.558;2024-03-25T11:07:16;18.20;68.10
67147;DHT22;70072;52.036;5.558;2024-03-25T11:09:42;18.20;67.90
67147;DHT22;70072;52.036;5.558;2024-03-25T11:12:12;18.20;68.00
67147;DHT22;70072;52.036;5.558;2024-03-25T11:14:39;18.20;68.00
67147;DHT22;70072;52.036;5.558;2024-03-25T11:17:14;18.20;68.00
67147;DHT22;70072;52.036;5.558;2024-03-25T11:19:41;18.20;67.90
67147;DHT22;70072;52.036;5.558;2024-03-25T11:22:08;18.30;68.00
67147;DHT22;70072;52.036;5.558;2024-03-25T11:24:35;18.30;68.00
67147;DHT22;70072;52.036;5.558;2024-03-25T11:27:06;18.30;68.10
67147;DHT22;70072;52.036;5.558;2024-03-25T11:29:31;18.30;68.10
67147;DHT22;70072;52.036;5.558;2024-03-25T11:32:01;18.30;68.20
67147;DHT22;70072;52.036;5.558;2024-03-25T11:34:28;18.30;68.30
67147;DHT22;70072;52.036;5.558;2024-03-25T11:36:54;18.30;68.30
67147;DHT22;70072;52.036;5.558;2024-03-25T11:39:22;18.30;68.30
67147;DHT22;70072;52.036;5.558;2024-03-25T11:41:48;18.30;68.40
67147;DHT22;70072;52.036;5.558;2024-03-25T11:44:13;18.30;68.50
67147;DHT22;70072;52.036;5.558;2024-03-25T11:46:40;18.40;68.60
67147;DHT22;70072;52.036;5.558;2024-03-25T11:49:06;18.40;68.80
67147;DHT22;70072;52.036;5.558;2024-03-25T11:51:36;18.40;68.90
67147;DHT22;70072;52.036;5.558;2024-03-25T11:54:04;18.40;68.90
67147;DHT22;70072;52.036;5.558;2024-03-25T11:56:32;18.40;69.00
67147;DHT22;70072;52.036;5.558;2024-03-25T11:59:01;18.40;69.00
67147;DHT22;70072;52.036;5.558;2024-03-25T12:01:28;18.40;68.90
67147;DHT22;70072;52.036;5.558;2024-03-25T12:03:54;18.40;68.90
67147;DHT22;70072;52.036;5.558;2024-03-25T12:06:22;18.40;68.90
67147;DHT22;70072;52.036;5.558;2024-03-25T12:08:47;18.40;69.60
67147;DHT22;70072;52.036;5.558;2024-03-25T12:11:32;18.40;68.90
67147;DHT22;70072;52.036;5.558;2024-03-25T12:13:59;18.40;68.90
67147;DHT22;70072;52.036;5.558;2024-03-25T12:16:25;18.40;68.90
67147;DHT22;70072;52.036;5.558;2024-03-25T12:18:51;18.40;68.90
67147;DHT22;70072;52.036;5.558;2024-03-25T12:21:20;18.40;68.90
67147;DHT22;70072;52.036;5.558;2024-03-25T12:23:47;18.40;68.90
67147;DHT22;70072;52.036;5.558;2024-03-25T12:26:13;18.50;68.90
67147;DHT22;70072;52.036;5.558;2024-03-25T12:28:39;18.50;68.90
67147;DHT22;70072;52.036;5.558;2024-03-25T12:31:08;18.50;68.90
67147;DHT22;70072;52.036;5.558;2024-03-25T12:33:41;18.50;68.80
67147;DHT22;70072;52.036;5.558;2024-03-25T12:36:07;18.50;68.80
67147;DHT22;70072;52.036;5.558;2024-03-25T12:38:33;18.50;68.90
67147;DHT22;70072;52.036;5.558;2024-03-25T12:41:10;18.50;68.80
67147;DHT22;70072;52.036;5.558;2024-03-25T12:43:42;18.50;68.60
67147;DHT22;70072;52.036;5.558;2024-03-25T12:46:08;18.50;68.70
67147;DHT22;70072;52.036;5.558;2024-03-25T12:48:34;18.50;68.70
67147;DHT22;70072;52.036;5.558;2024-03-25T12:51:00;18.50;68.70
67147;DHT22;70072;52.036;5.558;2024-03-25T12:53:26;18.50;69.30
67147;DHT22;70072;52.036;5.558;2024-03-25T12:55:52;18.50;68.60
67147;DHT22;70072;52.036;5.558;2024-03-25T12:58:18;18.50;68.60
67147;DHT22;70072;52.036;5.558;2024-03-25T13:00:43;18.50;69.20
67147;DHT22;70072;52.036;5.558;2024-03-25T13:03:10;18.50;68.60
67147;DHT22;70072;52.036;5.558;2024-03-25T13:05:36;18.50;68.60
67147;DHT22;70072;52.036;5.558;2024-03-25T13:08:02;18.50;68.50
67147;DHT22;70072;52.036;5.558;2024-03-25T13:10:29;18.60;68.50
67147;DHT22;70072;52.036;5.558;2024-03-25T13:12:55;18.60;68.50
67147;DHT22;70072;52.036;5.558;2024-03-25T13:15:21;18.60;68.50
67147;DHT22;70072;52.036;5.558;2024-03-25T13:17:47;18.60;68.50
67147;DHT22;70072;52.036;5.558;2024-03-25T13:20:12;18.60;68.40
67147;DHT22;70072;52.036;5.558;2024-03-25T13:22:39;18.60;68.30
67147;DHT22;70072;52.036;5.558;2024-03-25T13:25:05;18.60;68.30
67147;DHT22;70072;52.036;5.558;2024-03-25T13:27:31;18.60;68.30
67147;DHT22;70072;52.036;5.558;2024-03-25T13:29:57;18.60;68.20
67147;DHT22;70072;52.036;5.558;2024-03-25T13:32:22;18.60;68.20
67147;DHT22;70072;52.036;5.558;2024-03-25T13:34:49;18.60;68.20
67147;DHT22;70072;52.036;5.558;2024-03-25T13:37:15;18.60;68.20
67147;DHT22;70072;52.036;5.558;2024-03-25T13:39:40;18.70;68.20
67147;DHT22;70072;52.036;5.558;2024-03-25T13:42:06;18.60;68.70
67147;DHT22;70072;52.036;5.558;2024-03-25T13:44:32;18.60;68.10
67147;DHT22;70072;52.036;5.558;2024-03-25T13:46:57;18.60;68.00
67147;DHT22;70072;52.036;5.558;2024-03-25T13:49:25;18.60;68.00
67147;DHT22;70072;52.036;5.558;2024-03-25T13:51:56;18.70;68.00
67147;DHT22;70072;52.036;5.558;2024-03-25T13:54:22;18.70;67.90
67147;DHT22;70072;52.036;5.558;2024-03-25T13:56:47;18.70;68.00
67147;DHT22;70072;52.036;5.558;2024-03-25T13:59:15;18.60;67.90
67147;DHT22;70072;52.036;5.558;2024-03-25T14:01:41;18.70;68.00
67147;DHT22;70072;52.036;5.558;2024-03-25T14:04:06;18.70;68.50
67147;DHT22;70072;52.036;5.558;2024-03-25T14:06:32;18.70;67.90
67147;DHT22;70072;52.036;5.558;2024-03-25T14:09:02;18.70;67.90
67147;DHT22;70072;52.036;5.558;2024-03-25T14:11:30;18.80;67.80
67147;DHT22;70072;52.036;5.558;2024-03-25T14:13:55;18.80;67.70
67147;DHT22;70072;52.036;5.558;2024-03-25T14:16:23;18.90;68.30
67147;DHT22;70072;52.036;5.558;2024-03-25T14:18:49;18.90;67.60
67147;DHT22;70072;52.036;5.558;2024-03-25T14:21:15;18.90;67.50
67147;DHT22;70072;52.036;5.558;2024-03-25T14:23:41;18.90;67.40
67147;DHT22;70072;52.036;5.558;2024-03-25T14:26:12;18.90;67.40
67147;DHT22;70072;52.036;5.558;2024-03-25T14:28:40;19.00;67.30
67147;DHT22;70072;52.036;5.558;2024-03-25T14:31:08;18.90;67.20
67147;DHT22;70072;52.036;5.558;2024-03-25T14:33:36;19.00;67.30
67147;DHT22;70072;52.036;5.558;2024-03-25T14:36:02;19.00;67.30
67147;DHT22;70072;52.036;5.558;2024-03-25T14:38:29;19.10;67.30
67147;DHT22;70072;52.036;5.558;2024-03-25T14:40:54;19.10;67.10
67147;DHT22;70072;52.036;5.558;2024-03-25T14:43:20;19.20;67.10
67147;DHT22;70072;52.036;5.558;2024-03-25T14:45:48;19.30;67.10
67147;DHT22;70072;52.036;5.558;2024-03-25T14:48:16;19.30;67.00
67147;DHT22;70072;52.036;5.558;2024-03-25T14:50:42;19.30;66.90
67147;DHT22;70072;52.036;5.558;2024-03-25T14:53:08;19.40;66.90
67147;DHT22;70072;52.036;5.558;2024-03-25T14:55:33;19.40;66.70
67147;DHT22;70072;52.036;5.558;2024-03-25T14:58:01;19.50;66.60
67147;DHT22;70072;52.036;5.558;2024-03-25T15:00:27;19.50;66.40
67147;DHT22;70072;52.036;5.558;2024-03-25T15:02:52;19.50;66.20
67147;DHT22;70072;52.036;5.558;2024-03-25T15:05:18;19.60;66.00
67147;DHT22;70072;52.036;5.558;2024-03-25T15:07:47;19.60;65.90
67147;DHT22;70072;52.036;5.558;2024-03-25T15:10:13;19.60;65.70
67147;DHT22;70072;52.036;5.558;2024-03-25T15:12:38;19.70;65.70
67147;DHT22;70072;52.036;5.558;2024-03-25T15:15:06;19.70;65.60
67147;DHT22;70072;52.036;5.558;2024-03-25T15:17:33;19.80;65.40
67147;DHT22;70072;52.036;5.558;2024-03-25T15:19:59;19.80;65.30
67147;DHT22;70072;52.036;5.558;2024-03-25T15:22:25;19.80;65.10
67147;DHT22;70072;52.036;5.558;2024-03-25T15:24:52;19.90;65.00
67147;DHT22;70072;52.036;5.558;2024-03-25T15:27:18;19.90;64.90
67147;DHT22;70072;52.036;5.558;2024-03-25T15:29:44;19.90;64.70
67147;DHT22;70072;52.036;5.558;2024-03-25T15:32:09;19.90;64.60